createdAt,value
2019-01-29T00:00:02.193Z,87.17
2019-01-29T00:02:29.652Z,87.08
2019-01-29T00:04:57.086Z,87.35
2019-01-29T00:07:24.498Z,87.37
2019-01-29T00:09:51.960Z,87.28
2019-01-29T00:12:19.353Z,87.23
2019-01-29T00:14:46.757Z,87.17
2019-01-29T00:17:14.161Z,87.42
2019-01-29T00:19:41.560Z,87.61
2019-01-29T00:22:09.043Z,87.69
2019-01-29T00:24:36.419Z,87.78
2019-01-29T00:27:03.781Z,87.73
2019-01-29T00:29:31.235Z,88.40
2019-01-29T00:31:58.684Z,88.36
2019-01-29T00:34:26.102Z,88.20
2019-01-29T00:36:53.564Z,88.32
2019-01-29T00:39:20.959Z,88.30
2019-01-29T00:41:48.313Z,88.43
2019-01-29T00:44:15.767Z,88.66
2019-01-29T00:46:43.134Z,88.47
2019-01-29T00:49:10.546Z,88.85
2019-01-29T00:51:38.040Z,89.27
2019-01-29T00:54:06.023Z,89.60
2019-01-29T00:56:33.416Z,89.86
2019-01-29T00:59:00.842Z,89.94
2019-01-29T01:01:28.269Z,89.78
2019-01-29T01:03:55.681Z,89.64
2019-01-29T01:06:23.272Z,89.68
2019-01-29T01:08:50.666Z,90.01
2019-01-29T01:11:18.024Z,90.19
2019-01-29T01:13:45.460Z,90.42
2019-01-29T01:16:12.831Z,90.31
2019-01-29T01:18:40.252Z,90.23
2019-01-29T01:21:07.806Z,90.14
2019-01-29T01:23:35.180Z,89.99
2019-01-29T01:26:02.647Z,89.86
2019-01-29T01:28:30.019Z,90.21
2019-01-29T01:30:57.432Z,90.18
2019-01-29T01:33:24.840Z,90.05
2019-01-29T01:35:52.284Z,90.17
2019-01-29T01:38:19.658Z,90.14
2019-01-29T01:40:47.120Z,90.01
2019-01-29T01:43:14.522Z,90.07
2019-01-29T01:45:41.888Z,90.13
2019-01-29T01:48:09.355Z,90.23
2019-01-29T01:50:36.738Z,90.23
2019-01-29T01:53:04.618Z,90.15
2019-01-29T01:55:31.994Z,90.15
2019-01-29T01:57:59.361Z,89.96
2019-01-29T02:00:27.032Z,90.08
2019-01-29T02:02:54.440Z,89.95
2019-01-29T02:05:21.907Z,89.71
2019-01-29T02:07:49.567Z,89.65
2019-01-29T02:10:22.760Z,90.33
2019-01-29T02:12:50.156Z,90.33
2019-01-29T02:15:18.285Z,90.45
2019-01-29T02:17:45.631Z,90.38
2019-01-29T02:20:13.299Z,90.41
2019-01-29T02:22:40.675Z,90.22
2019-01-29T02:25:08.111Z,90.42
2019-01-29T02:27:35.487Z,90.59
2019-01-29T02:30:04.655Z,90.49
2019-01-29T02:32:32.029Z,90.62
2019-01-29T02:34:59.482Z,90.85
2019-01-29T02:37:26.846Z,90.81
2019-01-29T02:39:54.273Z,90.61
2019-01-29T02:42:21.639Z,90.58
2019-01-29T02:44:48.957Z,90.66
2019-01-29T02:47:16.388Z,90.73
2019-01-29T02:49:43.762Z,90.66
2019-01-29T02:52:11.129Z,90.78
2019-01-29T02:54:38.514Z,90.76
2019-01-29T02:57:05.999Z,91.07
2019-01-29T02:59:33.358Z,90.92
2019-01-29T03:02:00.763Z,90.52
2019-01-29T03:04:28.122Z,89.26
2019-01-29T03:06:55.540Z,90.01
2019-01-29T03:09:22.877Z,90.54
2019-01-29T03:11:50.256Z,90.57
2019-01-29T03:14:17.642Z,90.57
2019-01-29T03:16:45.070Z,90.38
2019-01-29T03:19:12.441Z,90.10
2019-01-29T03:21:40.175Z,90.10
2019-01-29T03:24:07.501Z,89.93
2019-01-29T03:26:34.850Z,90.19
2019-01-29T03:29:02.261Z,90.39
2019-01-29T03:31:29.686Z,90.54
2019-01-29T03:33:57.036Z,90.67
2019-01-29T03:36:24.479Z,90.63
2019-01-29T03:38:51.855Z,90.61
2019-01-29T03:41:19.275Z,90.62
2019-01-29T03:43:46.642Z,90.36
2019-01-29T03:46:14.074Z,89.77
2019-01-29T03:48:41.523Z,87.46
2019-01-29T03:51:08.896Z,87.46
2019-01-29T03:53:38.144Z,88.95
2019-01-29T03:56:05.641Z,89.90
2019-01-29T03:58:33.037Z,90.44
2019-01-29T04:01:00.437Z,90.81
2019-01-29T04:03:27.859Z,91.00
2019-01-29T04:05:55.232Z,91.20
2019-01-29T04:08:22.658Z,91.15
2019-01-29T04:10:50.042Z,90.88
2019-01-29T04:13:17.419Z,90.73
2019-01-29T04:15:44.854Z,90.74
2019-01-29T04:18:12.264Z,90.69
2019-01-29T04:20:39.765Z,90.68
2019-01-29T04:23:07.179Z,90.64
2019-01-29T04:25:34.558Z,90.67
2019-01-29T04:28:02.704Z,90.68
2019-01-29T04:30:30.079Z,90.93
2019-01-29T04:32:57.446Z,91.45
2019-01-29T04:35:24.902Z,91.86
2019-01-29T04:37:52.317Z,91.86
2019-01-29T04:40:20.155Z,91.76
2019-01-29T04:42:47.646Z,91.62
2019-01-29T04:45:15.583Z,91.50
2019-01-29T04:47:43.087Z,91.48
2019-01-29T04:50:15.264Z,91.22
2019-01-29T04:52:42.614Z,91.08
2019-01-29T04:55:11.360Z,91.08
2019-01-29T04:57:38.859Z,90.73
2019-01-29T05:00:09.460Z,90.85
2019-01-29T05:02:36.841Z,90.90
2019-01-29T05:05:05.715Z,90.90
2019-01-29T05:07:33.175Z,90.90
2019-01-29T05:10:00.627Z,90.68
2019-01-29T05:12:28.114Z,90.43
2019-01-29T05:14:55.541Z,88.50
2019-01-29T05:17:22.975Z,88.50
2019-01-29T05:19:50.334Z,88.36
2019-01-29T05:22:17.699Z,88.95
2019-01-29T05:24:45.114Z,88.95
2019-01-29T05:27:12.480Z,89.41
2019-01-29T05:29:39.902Z,89.60
2019-01-29T05:32:07.791Z,89.73
2019-01-29T05:34:35.204Z,89.84
2019-01-29T05:37:02.674Z,89.76
2019-01-29T05:39:30.105Z,89.62
2019-01-29T05:41:57.542Z,89.51
2019-01-29T05:44:24.985Z,89.42
2019-01-29T05:46:52.394Z,89.40
2019-01-29T05:49:19.774Z,89.34
2019-01-29T05:51:47.241Z,89.38
2019-01-29T05:54:16.349Z,89.38
2019-01-29T05:56:44.098Z,89.90
2019-01-29T05:59:11.569Z,90.02
2019-01-29T06:01:38.975Z,90.45
2019-01-29T06:04:06.500Z,90.62
2019-01-29T06:06:33.941Z,90.82
2019-01-29T06:09:01.355Z,90.86
2019-01-29T06:11:28.732Z,90.77
2019-01-29T06:13:56.165Z,90.59
2019-01-29T06:16:23.526Z,90.31
2019-01-29T06:18:50.938Z,90.21
2019-01-29T06:21:18.336Z,90.08
2019-01-29T06:23:45.695Z,90.08
2019-01-29T06:26:13.206Z,90.45
2019-01-29T06:28:40.594Z,90.45
2019-01-29T06:31:07.997Z,90.32
2019-01-29T06:33:35.518Z,90.30
2019-01-29T06:36:03.180Z,90.34
2019-01-29T06:38:30.540Z,90.40
2019-01-29T06:40:57.986Z,90.40
2019-01-29T06:43:25.399Z,90.55
2019-01-29T06:45:52.930Z,90.55
2019-01-29T06:48:20.370Z,90.23
2019-01-29T06:50:47.712Z,90.13
2019-01-29T06:53:15.121Z,90.03
2019-01-29T06:55:42.546Z,90.00
2019-01-29T06:58:09.992Z,89.79
2019-01-29T07:00:37.330Z,89.71
2019-01-29T07:03:05.119Z,89.69
2019-01-29T07:05:32.482Z,89.54
2019-01-29T07:07:59.887Z,89.55
2019-01-29T07:10:27.715Z,89.53
2019-01-29T07:12:55.223Z,89.60
2019-01-29T07:15:43.386Z,89.59
2019-01-29T07:18:30.295Z,89.55
2019-01-29T07:20:57.754Z,89.50
2019-01-29T07:23:25.158Z,89.24
2019-01-29T07:25:52.679Z,89.27
2019-01-29T07:28:20.074Z,89.52
2019-01-29T07:30:47.959Z,89.63
2019-01-29T07:33:15.347Z,89.78
2019-01-29T07:35:42.755Z,89.60
2019-01-29T07:38:10.115Z,89.27
2019-01-29T07:40:37.922Z,88.75
2019-01-29T07:43:06.175Z,87.92
2019-01-29T07:45:33.518Z,86.77
2019-01-29T07:48:00.923Z,86.49
2019-01-29T07:50:28.276Z,86.16
2019-01-29T07:52:55.677Z,86.51
2019-01-29T07:55:23.093Z,86.40
2019-01-29T07:57:50.436Z,86.45
2019-01-29T08:00:17.807Z,86.71
2019-01-29T08:02:45.223Z,86.75
2019-01-29T08:05:14.238Z,87.08
2019-01-29T08:07:41.835Z,87.13
2019-01-29T08:10:09.475Z,86.89
2019-01-29T08:12:36.817Z,86.24
2019-01-29T08:15:04.729Z,85.29
2019-01-29T08:17:32.089Z,85.29
2019-01-29T08:19:59.486Z,85.78
2019-01-29T08:22:26.882Z,85.78
2019-01-29T08:25:01.931Z,86.42
2019-01-29T08:27:23.498Z,86.37
2019-01-29T08:29:50.918Z,86.53
2019-01-29T08:32:18.306Z,86.36
2019-01-29T08:34:45.628Z,85.13
2019-01-29T08:37:15.184Z,83.94
2019-01-29T08:39:42.540Z,84.33
2019-01-29T08:42:09.989Z,83.69
2019-01-29T08:44:37.345Z,83.38
2019-01-29T08:47:05.875Z,83.38
2019-01-29T08:49:33.234Z,81.68
2019-01-29T08:52:00.604Z,82.23
2019-01-29T08:54:27.956Z,81.21
2019-01-29T08:56:55.399Z,80.12
2019-01-29T08:59:22.739Z,80.74
2019-01-29T09:01:50.142Z,81.22
2019-01-29T09:04:17.542Z,81.92
2019-01-29T09:06:44.913Z,82.38
2019-01-29T09:09:12.281Z,82.38
2019-01-29T09:11:39.694Z,80.30
2019-01-29T09:14:07.045Z,79.29
2019-01-29T09:16:34.477Z,80.69
2019-01-29T09:19:01.861Z,79.98
2019-01-29T09:21:29.574Z,80.62
2019-01-29T09:23:56.939Z,81.61
2019-01-29T09:26:24.331Z,84.17
2019-01-29T09:28:51.665Z,84.88
2019-01-29T09:31:19.057Z,83.46
2019-01-29T09:33:46.447Z,83.46
2019-01-29T09:36:13.833Z,83.01
2019-01-29T09:38:41.293Z,82.37
2019-01-29T09:41:09.171Z,82.47
2019-01-29T09:43:36.732Z,83.25
2019-01-29T09:46:04.198Z,84.54
2019-01-29T09:48:31.597Z,84.38
2019-01-29T09:50:58.942Z,82.53
2019-01-29T09:53:26.344Z,82.63
2019-01-29T09:55:53.737Z,81.38
2019-01-29T09:58:21.078Z,81.01
2019-01-29T10:00:48.554Z,79.81
2019-01-29T10:03:16.325Z,79.27
2019-01-29T10:05:43.668Z,79.62
2019-01-29T10:08:11.640Z,79.96
2019-01-29T10:10:38.993Z,78.54
2019-01-29T10:13:06.411Z,79.94
2019-01-29T10:15:34.837Z,79.11
2019-01-29T10:18:02.337Z,78.56
2019-01-29T10:20:29.848Z,76.82
2019-01-29T10:22:57.255Z,76.06
2019-01-29T10:25:24.754Z,74.41
2019-01-29T10:27:52.198Z,74.37
2019-01-29T10:30:19.732Z,76.63
2019-01-29T10:32:47.222Z,78.74
2019-01-29T10:35:16.317Z,77.86
2019-01-29T10:37:43.798Z,76.60
2019-01-29T10:40:13.875Z,74.08
2019-01-29T10:42:41.256Z,73.24
2019-01-29T10:45:10.040Z,74.25
2019-01-29T10:47:37.462Z,75.84
2019-01-29T10:50:07.331Z,76.72
2019-01-29T10:52:34.982Z,75.91
2019-01-29T10:55:02.680Z,74.67
2019-01-29T10:57:30.190Z,74.16
2019-01-29T10:59:57.596Z,72.50
2019-01-29T11:02:25.017Z,72.38
2019-01-29T11:04:52.403Z,72.40
2019-01-29T11:07:19.815Z,74.50
2019-01-29T11:09:48.489Z,76.31
2019-01-29T11:12:16.118Z,76.61
2019-01-29T11:14:43.558Z,77.32
2019-01-29T11:17:11.059Z,76.42
2019-01-29T11:19:38.476Z,77.09
2019-01-29T11:22:05.974Z,76.13
2019-01-29T11:24:33.400Z,76.79
2019-01-29T11:27:00.824Z,76.69
2019-01-29T11:29:28.371Z,77.24
2019-01-29T11:31:56.396Z,76.86
2019-01-29T11:34:23.806Z,77.87
2019-01-29T11:36:51.204Z,77.70
2019-01-29T11:39:18.622Z,77.42
2019-01-29T11:41:46.035Z,78.24
2019-01-29T11:44:13.519Z,78.44
2019-01-29T11:46:41.096Z,77.97
2019-01-29T11:49:08.598Z,77.50
2019-01-29T11:51:36.064Z,77.20
2019-01-29T11:54:03.847Z,76.75
2019-01-29T11:56:31.291Z,76.37
2019-01-29T11:58:58.773Z,76.16
2019-01-29T12:01:27.289Z,76.36
2019-01-29T12:03:54.721Z,75.90
2019-01-29T12:06:22.120Z,76.36
2019-01-29T12:08:49.498Z,77.82
2019-01-29T12:11:16.969Z,77.68
2019-01-29T12:13:44.401Z,77.27
2019-01-29T12:16:11.789Z,77.48
2019-01-29T12:18:39.147Z,77.42
2019-01-29T12:21:06.554Z,77.77
2019-01-29T12:23:33.954Z,76.95
2019-01-29T12:26:01.602Z,76.26
2019-01-29T12:28:28.994Z,76.30
2019-01-29T12:30:56.320Z,76.47
2019-01-29T12:33:23.858Z,76.35
2019-01-29T12:35:51.217Z,74.08
2019-01-29T12:38:18.622Z,72.54
2019-01-29T12:40:46.005Z,72.60
2019-01-29T12:43:13.494Z,72.82
2019-01-29T12:45:40.973Z,73.37
2019-01-29T12:48:08.623Z,73.11
2019-01-29T12:50:37.917Z,75.19
2019-01-29T12:53:10.685Z,73.83
2019-01-29T12:55:38.082Z,73.58
2019-01-29T12:58:05.922Z,73.48
2019-01-29T13:00:36.918Z,74.95
2019-01-29T13:03:04.607Z,75.76
2019-01-29T13:05:32.776Z,75.88
2019-01-29T13:08:00.334Z,74.63
2019-01-29T13:10:27.836Z,75.86
2019-01-29T13:12:55.403Z,75.33
2019-01-29T13:15:25.808Z,76.86
2019-01-29T13:17:53.227Z,75.08
2019-01-29T13:20:20.717Z,74.77
2019-01-29T13:22:48.184Z,73.89
2019-01-29T13:25:16.112Z,74.22
2019-01-29T13:27:43.478Z,73.17
2019-01-29T13:30:27.061Z,75.81
2019-01-29T13:32:54.452Z,75.03
2019-01-29T13:35:24.122Z,74.40
2019-01-29T13:37:51.514Z,74.44
2019-01-29T13:40:19.159Z,75.09
2019-01-29T13:42:46.721Z,75.81
2019-01-29T13:45:14.498Z,75.07
2019-01-29T13:47:43.484Z,75.42
2019-01-29T13:50:14.217Z,76.77
2019-01-29T13:52:41.587Z,77.24
2019-01-29T13:55:11.207Z,77.24
2019-01-29T13:57:38.747Z,75.39
2019-01-29T14:00:12.399Z,74.75
2019-01-29T14:02:40.007Z,76.87
2019-01-29T14:05:07.541Z,76.25
2019-01-29T14:07:34.939Z,76.95
2019-01-29T14:10:02.506Z,77.13
2019-01-29T14:12:30.044Z,77.22
2019-01-29T14:14:57.437Z,78.01
2019-01-29T14:17:24.881Z,77.95
2019-01-29T14:19:52.310Z,77.88
2019-01-29T14:22:19.715Z,77.34
2019-01-29T14:24:47.172Z,77.74
2019-01-29T14:27:14.562Z,78.60
2019-01-29T14:29:41.949Z,77.99
2019-01-29T14:32:09.496Z,76.87
2019-01-29T14:34:36.942Z,76.64
2019-01-29T14:37:04.434Z,77.88
2019-01-29T14:39:58.104Z,77.31
2019-01-29T14:42:25.559Z,77.75
2019-01-29T14:44:54.930Z,78.43
2019-01-29T14:47:22.947Z,78.43
2019-01-29T14:49:50.355Z,78.32
2019-01-29T14:52:17.799Z,78.93
2019-01-29T14:54:45.856Z,78.87
2019-01-29T14:57:13.359Z,77.64
2019-01-29T14:59:40.920Z,78.32
2019-01-29T15:02:08.428Z,78.73
2019-01-29T15:04:35.889Z,78.07
2019-01-29T15:07:03.338Z,78.21
2019-01-29T15:09:30.803Z,77.91
2019-01-29T15:11:58.203Z,78.06
2019-01-29T15:14:26.060Z,77.45
2019-01-29T15:17:11.838Z,77.18
2019-01-29T15:19:40.380Z,77.47
2019-01-29T15:22:08.997Z,76.84
2019-01-29T15:24:36.566Z,77.08
2019-01-29T15:27:06.003Z,77.05
2019-01-29T15:29:33.543Z,77.05
2019-01-29T15:32:01.037Z,76.78
2019-01-29T15:34:28.419Z,76.59
2019-01-29T15:36:55.862Z,76.62
2019-01-29T15:39:23.299Z,77.60
2019-01-29T15:41:50.679Z,77.43
2019-01-29T15:44:18.127Z,78.59
2019-01-29T15:46:45.703Z,78.39
2019-01-29T15:49:13.162Z,77.77
2019-01-29T15:51:40.615Z,77.77
2019-01-29T15:54:08.158Z,78.46
2019-01-29T15:56:35.689Z,78.21
2019-01-29T15:59:03.271Z,78.63
2019-01-29T16:01:30.720Z,79.34
2019-01-29T16:03:58.193Z,79.17
2019-01-29T16:06:25.650Z,78.96
2019-01-29T16:08:53.100Z,79.19
2019-01-29T16:11:20.538Z,78.84
2019-01-29T16:13:47.922Z,78.75
2019-01-29T16:16:15.533Z,78.15
2019-01-29T16:18:42.920Z,78.93
2019-01-29T16:21:10.376Z,79.21
2019-01-29T16:23:37.800Z,78.95
2019-01-29T16:26:05.376Z,79.26
2019-01-29T16:28:32.884Z,79.22
2019-01-29T16:31:00.317Z,79.52
2019-01-29T16:33:27.813Z,80.03
2019-01-29T16:35:55.362Z,80.19
2019-01-29T16:38:22.832Z,80.06
2019-01-29T16:40:50.943Z,80.05
2019-01-29T16:43:19.344Z,80.66
2019-01-29T16:45:48.237Z,80.58
2019-01-29T16:48:16.631Z,80.22
2019-01-29T16:50:44.429Z,80.32
2019-01-29T16:53:11.931Z,80.32
2019-01-29T16:55:39.497Z,80.19
2019-01-29T16:58:07.562Z,80.49
2019-01-29T17:00:35.960Z,80.43
2019-01-29T17:03:04.019Z,80.30
2019-01-29T17:05:31.770Z,79.86
2019-01-29T17:07:59.919Z,80.01
2019-01-29T17:10:27.896Z,79.84
2019-01-29T17:12:55.803Z,79.29
2019-01-29T17:15:25.459Z,79.29
2019-01-29T17:17:53.281Z,79.23
2019-01-29T17:20:23.950Z,79.23
2019-01-29T17:22:51.742Z,79.63
2019-01-29T17:25:19.539Z,79.25
2019-01-29T17:27:47.286Z,79.25
2019-01-29T17:30:35.821Z,79.44
2019-01-29T17:33:06.460Z,79.68
2019-01-29T17:35:35.542Z,79.27
2019-01-29T17:38:04.118Z,79.78
2019-01-29T17:40:32.098Z,79.52
2019-01-29T17:43:02.367Z,78.78
2019-01-29T17:45:32.666Z,79.33
2019-01-29T17:48:00.645Z,79.33
2019-01-29T17:50:30.759Z,78.40
2019-01-29T17:52:58.416Z,78.13
2019-01-29T17:55:27.825Z,78.17
2019-01-29T17:57:55.840Z,78.42
2019-01-29T18:00:28.367Z,78.42
2019-01-29T18:02:56.251Z,77.77
2019-01-29T18:05:24.202Z,77.77
2019-01-29T18:07:51.989Z,77.04
2019-01-29T18:10:20.129Z,79.08
2019-01-29T18:12:48.175Z,79.40
2019-01-29T18:15:18.349Z,79.08
2019-01-29T18:17:48.205Z,79.08
2019-01-29T18:20:16.274Z,78.80
2019-01-29T18:22:44.453Z,78.91
2019-01-29T18:25:12.611Z,78.91
2019-01-29T18:27:40.577Z,79.13
2019-01-29T18:30:21.204Z,78.97
2019-01-29T18:32:49.127Z,78.97
2019-01-29T18:35:17.152Z,78.32
2019-01-29T18:37:45.124Z,78.39
2019-01-29T18:40:19.226Z,78.21
2019-01-29T18:42:48.202Z,78.56
2019-01-29T18:45:16.206Z,78.69
2019-01-29T18:47:44.224Z,78.69
2019-01-29T18:50:14.655Z,79.04
2019-01-29T18:52:42.581Z,78.74
2019-01-29T18:55:10.743Z,78.74
2019-01-29T18:57:39.763Z,78.93
2019-01-29T19:00:16.530Z,78.97
2019-01-29T19:02:45.586Z,78.37
2019-01-29T19:05:13.609Z,78.37
2019-01-29T19:07:41.648Z,80.04
2019-01-29T19:10:12.255Z,78.52
2019-01-29T19:12:40.119Z,79.09
2019-01-29T19:15:10.790Z,79.09
2019-01-29T19:17:40.037Z,79.26
2019-01-29T19:20:08.711Z,78.09
2019-01-29T19:22:37.283Z,78.90
2019-01-29T19:25:06.862Z,78.87
2019-01-29T19:27:35.399Z,78.37
2019-01-29T19:30:05.572Z,78.37
2019-01-29T19:32:34.082Z,78.47
2019-01-29T19:35:02.044Z,78.59
2019-01-29T19:37:31.013Z,78.50
2019-01-29T19:39:59.127Z,78.98
2019-01-29T19:42:27.903Z,78.01
2019-01-29T19:44:56.153Z,78.01
2019-01-29T19:47:24.180Z,78.78
2019-01-29T19:49:52.207Z,79.27
2019-01-29T19:52:20.216Z,79.27
2019-01-29T19:54:48.234Z,78.95
2019-01-29T19:57:16.377Z,78.93
2019-01-29T19:59:44.418Z,78.93
2019-01-29T20:02:12.492Z,79.02
2019-01-29T20:04:40.506Z,78.77
2019-01-29T20:07:09.387Z,78.45
2019-01-29T20:09:37.363Z,79.03
2019-01-29T20:12:06.738Z,79.74
2019-01-29T20:14:34.722Z,79.74
2019-01-29T20:17:05.221Z,79.63
2019-01-29T20:19:33.198Z,78.77
2019-01-29T20:22:01.043Z,78.50
2019-01-29T20:24:29.923Z,78.54
2019-01-29T20:26:57.901Z,78.69
2019-01-29T20:29:25.846Z,78.65
2019-01-29T20:31:54.354Z,78.17
2019-01-29T20:34:22.474Z,80.30
2019-01-29T20:36:50.479Z,78.44
2019-01-29T20:39:18.510Z,79.51
2019-01-29T20:41:47.650Z,80.35
2019-01-29T20:44:16.068Z,77.86
2019-01-29T20:46:43.949Z,77.78
2019-01-29T20:49:11.966Z,78.64
2019-01-29T20:51:39.901Z,76.48
2019-01-29T20:54:07.839Z,78.08
2019-01-29T20:56:35.729Z,79.09
2019-01-29T20:59:03.665Z,79.09
2019-01-29T21:01:31.635Z,78.48
2019-01-29T21:03:59.575Z,78.48
2019-01-29T21:06:27.490Z,78.71
2019-01-29T21:08:55.493Z,75.86
2019-01-29T21:11:23.456Z,78.25
2019-01-29T21:13:51.302Z,78.25
2019-01-29T21:16:19.410Z,78.42
2019-01-29T21:18:47.174Z,78.08
2019-01-29T21:21:15.160Z,78.03
2019-01-29T21:23:43.229Z,78.03
2019-01-29T21:26:12.112Z,77.71
2019-01-29T21:28:39.923Z,78.41
2019-01-29T21:31:08.167Z,79.73
2019-01-29T21:33:36.050Z,79.73
2019-01-29T21:36:03.963Z,79.57
2019-01-29T21:38:31.918Z,78.63
2019-01-29T21:40:59.594Z,78.63
2019-01-29T21:43:27.179Z,78.13
2019-01-29T21:45:54.779Z,79.36
2019-01-29T21:48:22.315Z,80.75
2019-01-29T21:50:50.018Z,80.51
2019-01-29T21:53:17.450Z,80.01
2019-01-29T21:55:44.858Z,81.00
2019-01-29T21:58:12.379Z,79.84
2019-01-29T22:00:44.339Z,80.65
2019-01-29T22:03:12.860Z,80.52
2019-01-29T22:05:40.287Z,81.40
2019-01-29T22:08:08.982Z,80.17
2019-01-29T22:10:36.405Z,78.63
2019-01-29T22:13:05.367Z,79.93
2019-01-29T22:15:32.750Z,79.17
2019-01-29T22:18:00.257Z,78.88
2019-01-29T22:20:27.640Z,79.39
2019-01-29T22:22:54.990Z,79.43
2019-01-29T22:25:22.582Z,80.77
2019-01-29T22:27:50.085Z,79.72
2019-01-29T22:30:20.438Z,78.19
2019-01-29T22:32:47.786Z,77.40
2019-01-29T22:35:15.294Z,78.24
2019-01-29T22:37:42.714Z,77.92
2019-01-29T22:40:13.218Z,77.92
2019-01-29T22:42:40.599Z,78.26
2019-01-29T22:45:09.277Z,79.12
2019-01-29T22:47:36.665Z,79.74
2019-01-29T22:50:06.785Z,79.36
2019-01-29T22:52:34.287Z,79.74
2019-01-29T22:55:01.695Z,79.96
2019-01-29T22:57:29.057Z,79.47
2019-01-29T22:59:56.487Z,79.39
2019-01-29T23:02:23.854Z,79.19
2019-01-29T23:04:51.214Z,79.85
2019-01-29T23:07:24.617Z,81.77
2019-01-29T23:09:51.999Z,82.73
2019-01-29T23:12:19.366Z,81.41
2019-01-29T23:14:46.857Z,79.57
2019-01-29T23:17:14.274Z,79.58
2019-01-29T23:19:41.662Z,79.55
2019-01-29T23:22:09.107Z,79.04
2019-01-29T23:24:36.473Z,78.93
2019-01-29T23:27:04.061Z,78.94
2019-01-29T23:29:31.439Z,79.16
2019-01-29T23:31:58.808Z,78.35
2019-01-29T23:34:26.205Z,78.47
2019-01-29T23:36:53.554Z,78.87
2019-01-29T23:39:20.934Z,77.70
2019-01-29T23:41:48.315Z,79.99
2019-01-29T23:44:15.795Z,79.31
2019-01-29T23:46:43.249Z,78.53
2019-01-29T23:49:10.643Z,79.28
2019-01-29T23:51:38.035Z,79.52
2019-01-29T23:54:05.554Z,79.28
2019-01-29T23:56:32.966Z,79.53
2019-01-29T23:59:00.346Z,78.15
